sensor_id;sensor_type;location;lat;lon;timestamp;P1;durP1;ratioP1;P2;durP2;ratioP2
62933;SDS011;49038;47.600;19.242;2023-12-14T00:00:52;12.13;;;6.07;;
62933;SDS011;49038;47.600;19.242;2023-12-14T00:03:54;15.60;;;5.28;;
62933;SDS011;49038;47.600;19.242;2023-12-14T00:06:57;25.55;;;6.85;;
62933;SDS011;49038;47.600;19.242;2023-12-14T00:09:59;8.55;;;5.28;;
62933;SDS011;49038;47.600;19.242;2023-12-14T00:13:01;9.30;;;6.03;;
62933;SDS011;49038;47.600;19.242;2023-12-14T00:16:05;21.90;;;5.97;;
62933;SDS011;49038;47.600;19.242;2023-12-14T00:19:08;8.45;;;5.03;;
62933;SDS011;49038;47.600;19.242;2023-12-14T00:22:10;11.43;;;7.22;;
62933;SDS011;49038;47.600;19.242;2023-12-14T00:25:13;7.60;;;5.85;;
62933;SDS011;49038;47.600;19.242;2023-12-14T00:28:15;8.30;;;5.68;;
62933;SDS011;49038;47.600;19.242;2023-12-14T00:31:17;10.80;;;6.03;;
62933;SDS011;49038;47.600;19.242;2023-12-14T00:34:20;50.38;;;8.35;;
62933;SDS011;49038;47.600;19.242;2023-12-14T00:37:22;13.85;;;8.07;;
62933;SDS011;49038;47.600;19.242;2023-12-14T00:40:24;9.48;;;6.50;;
62933;SDS011;49038;47.600;19.242;2023-12-14T00:43:27;14.10;;;7.15;;
62933;SDS011;49038;47.600;19.242;2023-12-14T00:46:29;6.03;;;4.93;;
62933;SDS011;49038;47.600;19.242;2023-12-14T00:49:31;11.63;;;5.70;;
62933;SDS011;49038;47.600;19.242;2023-12-14T00:52:34;10.45;;;6.30;;
62933;SDS011;49038;47.600;19.242;2023-12-14T00:55:36;10.13;;;5.78;;
62933;SDS011;49038;47.600;19.242;2023-12-14T00:58:39;8.85;;;4.72;;
62933;SDS011;49038;47.600;19.242;2023-12-14T01:01:41;11.60;;;6.30;;
62933;SDS011;49038;47.600;19.242;2023-12-14T01:04:43;14.90;;;6.05;;
62933;SDS011;49038;47.600;19.242;2023-12-14T01:07:46;7.97;;;5.55;;
62933;SDS011;49038;47.600;19.242;2023-12-14T01:10:48;16.27;;;6.82;;
62933;SDS011;49038;47.600;19.242;2023-12-14T01:13:50;12.32;;;7.87;;
62933;SDS011;49038;47.600;19.242;2023-12-14T01:16:53;9.68;;;6.78;;
62933;SDS011;49038;47.600;19.242;2023-12-14T01:19:55;9.52;;;5.97;;
62933;SDS011;49038;47.600;19.242;2023-12-14T01:22:57;12.55;;;6.12;;
62933;SDS011;49038;47.600;19.242;2023-12-14T01:26:00;10.90;;;5.87;;
62933;SDS011;49038;47.600;19.242;2023-12-14T01:29:02;10.35;;;7.07;;
62933;SDS011;49038;47.600;19.242;2023-12-14T01:32:05;8.43;;;6.20;;
62933;SDS011;49038;47.600;19.242;2023-12-14T01:35:07;13.68;;;6.37;;
62933;SDS011;49038;47.600;19.242;2023-12-14T01:38:10;11.82;;;6.35;;
62933;SDS011;49038;47.600;19.242;2023-12-14T01:41:12;12.13;;;6.75;;
62933;SDS011;49038;47.600;19.242;2023-12-14T01:44:14;7.20;;;4.85;;
62933;SDS011;49038;47.600;19.242;2023-12-14T01:47:17;10.93;;;5.82;;
62933;SDS011;49038;47.600;19.242;2023-12-14T01:50:19;10.40;;;5.95;;
62933;SDS011;49038;47.600;19.242;2023-12-14T01:53:21;8.57;;;5.62;;
62933;SDS011;49038;47.600;19.242;2023-12-14T01:56:24;9.55;;;5.97;;
62933;SDS011;49038;47.600;19.242;2023-12-14T01:59:26;8.35;;;5.55;;
62933;SDS011;49038;47.600;19.242;2023-12-14T02:02:28;6.00;;;4.47;;
62933;SDS011;49038;47.600;19.242;2023-12-14T02:05:31;9.50;;;5.32;;
62933;SDS011;49038;47.600;19.242;2023-12-14T02:08:33;8.35;;;4.47;;
62933;SDS011;49038;47.600;19.242;2023-12-14T02:11:36;5.47;;;4.18;;
62933;SDS011;49038;47.600;19.242;2023-12-14T02:14:38;3.97;;;3.58;;
62933;SDS011;49038;47.600;19.242;2023-12-14T02:17:40;5.12;;;4.62;;
62933;SDS011;49038;47.600;19.242;2023-12-14T02:20:43;8.43;;;5.28;;
62933;SDS011;49038;47.600;19.242;2023-12-14T02:23:45;10.20;;;5.07;;
62933;SDS011;49038;47.600;19.242;2023-12-14T02:26:48;6.40;;;4.68;;
62933;SDS011;49038;47.600;19.242;2023-12-14T02:30:04;11.50;;;5.68;;
62933;SDS011;49038;47.600;19.242;2023-12-14T02:33:07;10.27;;;5.93;;
62933;SDS011;49038;47.600;19.242;2023-12-14T02:36:09;6.70;;;5.37;;
62933;SDS011;49038;47.600;19.242;2023-12-14T02:39:12;7.93;;;5.18;;
62933;SDS011;49038;47.600;19.242;2023-12-14T02:42:14;8.88;;;5.47;;
62933;SDS011;49038;47.600;19.242;2023-12-14T02:45:16;11.18;;;5.40;;
62933;SDS011;49038;47.600;19.242;2023-12-14T02:48:18;9.32;;;5.03;;
62933;SDS011;49038;47.600;19.242;2023-12-14T02:51:21;9.15;;;5.25;;
62933;SDS011;49038;47.600;19.242;2023-12-14T02:54:23;8.75;;;6.50;;
62933;SDS011;49038;47.600;19.242;2023-12-14T02:57:25;6.70;;;5.10;;
62933;SDS011;49038;47.600;19.242;2023-12-14T03:00:27;6.25;;;4.57;;
62933;SDS011;49038;47.600;19.242;2023-12-14T03:03:30;7.53;;;5.10;;
62933;SDS011;49038;47.600;19.242;2023-12-14T03:06:32;7.30;;;4.12;;
62933;SDS011;49038;47.600;19.242;2023-12-14T03:09:34;5.10;;;4.37;;
62933;SDS011;49038;47.600;19.242;2023-12-14T03:12:37;8.68;;;4.35;;
62933;SDS011;49038;47.600;19.242;2023-12-14T03:15:39;8.50;;;3.95;;
62933;SDS011;49038;47.600;19.242;2023-12-14T03:18:44;8.95;;;5.50;;
62933;SDS011;49038;47.600;19.242;2023-12-14T03:21:46;5.25;;;4.62;;
62933;SDS011;49038;47.600;19.242;2023-12-14T03:24:49;6.62;;;5.50;;
62933;SDS011;49038;47.600;19.242;2023-12-14T03:27:51;5.62;;;4.32;;
62933;SDS011;49038;47.600;19.242;2023-12-14T03:30:53;4.12;;;3.70;;
62933;SDS011;49038;47.600;19.242;2023-12-14T03:33:55;12.13;;;6.45;;
62933;SDS011;49038;47.600;19.242;2023-12-14T03:36:58;5.72;;;4.75;;
62933;SDS011;49038;47.600;19.242;2023-12-14T03:40:00;9.63;;;4.55;;
62933;SDS011;49038;47.600;19.242;2023-12-14T03:43:03;5.03;;;4.37;;
62933;SDS011;49038;47.600;19.242;2023-12-14T03:46:06;9.10;;;5.12;;
62933;SDS011;49038;47.600;19.242;2023-12-14T03:49:08;5.70;;;4.30;;
62933;SDS011;49038;47.600;19.242;2023-12-14T03:52:11;7.93;;;4.93;;
62933;SDS011;49038;47.600;19.242;2023-12-14T03:55:13;6.65;;;5.45;;
62933;SDS011;49038;47.600;19.242;2023-12-14T03:58:17;6.78;;;5.03;;
62933;SDS011;49038;47.600;19.242;2023-12-14T04:01:19;6.93;;;4.47;;
62933;SDS011;49038;47.600;19.242;2023-12-14T04:04:22;8.30;;;5.22;;
62933;SDS011;49038;47.600;19.242;2023-12-14T04:07:25;6.35;;;4.72;;
62933;SDS011;49038;47.600;19.242;2023-12-14T04:10:27;9.50;;;4.37;;
62933;SDS011;49038;47.600;19.242;2023-12-14T04:13:29;7.20;;;5.60;;
62933;SDS011;49038;47.600;19.242;2023-12-14T04:16:32;12.40;;;6.90;;
62933;SDS011;49038;47.600;19.242;2023-12-14T04:19:34;9.68;;;4.97;;
62933;SDS011;49038;47.600;19.242;2023-12-14T04:22:37;6.07;;;4.32;;
62933;SDS011;49038;47.600;19.242;2023-12-14T04:25:40;8.18;;;5.25;;
62933;SDS011;49038;47.600;19.242;2023-12-14T04:28:42;9.43;;;6.35;;
62933;SDS011;49038;47.600;19.242;2023-12-14T04:31:46;7.65;;;4.10;;
62933;SDS011;49038;47.600;19.242;2023-12-14T04:34:48;7.75;;;4.62;;
62933;SDS011;49038;47.600;19.242;2023-12-14T04:37:51;6.55;;;3.90;;
62933;SDS011;49038;47.600;19.242;2023-12-14T04:40:53;6.70;;;5.03;;
62933;SDS011;49038;47.600;19.242;2023-12-14T04:43:55;8.20;;;5.00;;
62933;SDS011;49038;47.600;19.242;2023-12-14T04:46:58;7.32;;;4.78;;
62933;SDS011;49038;47.600;19.242;2023-12-14T04:50:01;8.18;;;4.78;;
62933;SDS011;49038;47.600;19.242;2023-12-14T04:53:04;11.57;;;6.40;;
62933;SDS011;49038;47.600;19.242;2023-12-14T04:56:10;10.95;;;5.80;;
62933;SDS011;49038;47.600;19.242;2023-12-14T04:59:13;8.57;;;5.65;;
62933;SDS011;49038;47.600;19.242;2023-12-14T05:02:15;7.10;;;5.18;;
62933;SDS011;49038;47.600;19.242;2023-12-14T05:05:18;8.60;;;4.50;;
62933;SDS011;49038;47.600;19.242;2023-12-14T05:08:20;5.53;;;3.90;;
62933;SDS011;49038;47.600;19.242;2023-12-14T05:11:23;10.55;;;5.40;;
62933;SDS011;49038;47.600;19.242;2023-12-14T05:14:25;8.27;;;4.72;;
62933;SDS011;49038;47.600;19.242;2023-12-14T05:17:29;13.10;;;8.32;;
62933;SDS011;49038;47.600;19.242;2023-12-14T05:20:31;6.43;;;4.43;;
62933;SDS011;49038;47.600;19.242;2023-12-14T05:23:33;9.60;;;6.07;;
62933;SDS011;49038;47.600;19.242;2023-12-14T05:26:36;12.35;;;8.82;;
62933;SDS011;49038;47.600;19.242;2023-12-14T05:29:38;19.40;;;8.23;;
62933;SDS011;49038;47.600;19.242;2023-12-14T05:32:40;7.65;;;4.53;;
62933;SDS011;49038;47.600;19.242;2023-12-14T05:35:43;5.00;;;3.97;;
62933;SDS011;49038;47.600;19.242;2023-12-14T05:38:45;4.30;;;3.87;;
62933;SDS011;49038;47.600;19.242;2023-12-14T05:41:48;8.50;;;4.35;;
62933;SDS011;49038;47.600;19.242;2023-12-14T05:44:50;5.95;;;4.30;;
62933;SDS011;49038;47.600;19.242;2023-12-14T05:47:52;6.80;;;4.37;;
62933;SDS011;49038;47.600;19.242;2023-12-14T05:50:56;6.60;;;4.62;;
62933;SDS011;49038;47.600;19.242;2023-12-14T05:53:58;7.95;;;5.32;;
62933;SDS011;49038;47.600;19.242;2023-12-14T05:57:01;7.55;;;4.80;;
62933;SDS011;49038;47.600;19.242;2023-12-14T06:00:03;8.20;;;4.82;;
62933;SDS011;49038;47.600;19.242;2023-12-14T06:03:07;5.93;;;4.12;;
62933;SDS011;49038;47.600;19.242;2023-12-14T06:06:09;6.12;;;5.18;;
62933;SDS011;49038;47.600;19.242;2023-12-14T06:09:13;6.85;;;4.78;;
62933;SDS011;49038;47.600;19.242;2023-12-14T06:12:15;8.48;;;5.07;;
62933;SDS011;49038;47.600;19.242;2023-12-14T06:15:18;6.87;;;5.45;;
62933;SDS011;49038;47.600;19.242;2023-12-14T06:18:20;6.82;;;5.03;;
62933;SDS011;49038;47.600;19.242;2023-12-14T06:21:23;13.35;;;6.03;;
62933;SDS011;49038;47.600;19.242;2023-12-14T06:24:30;6.45;;;4.87;;
62933;SDS011;49038;47.600;19.242;2023-12-14T06:27:32;10.45;;;6.00;;
62933;SDS011;49038;47.600;19.242;2023-12-14T06:30:34;10.35;;;6.10;;
62933;SDS011;49038;47.600;19.242;2023-12-14T06:33:36;10.27;;;6.65;;
62933;SDS011;49038;47.600;19.242;2023-12-14T06:36:42;13.25;;;7.80;;
62933;SDS011;49038;47.600;19.242;2023-12-14T06:39:45;11.98;;;6.07;;
62933;SDS011;49038;47.600;19.242;2023-12-14T06:42:48;21.50;;;8.23;;
62933;SDS011;49038;47.600;19.242;2023-12-14T06:45:51;21.50;;;10.30;;
62933;SDS011;49038;47.600;19.242;2023-12-14T06:48:54;20.37;;;10.38;;
62933;SDS011;49038;47.600;19.242;2023-12-14T06:51:57;26.85;;;12.68;;
62933;SDS011;49038;47.600;19.242;2023-12-14T06:54:59;19.45;;;9.10;;
62933;SDS011;49038;47.600;19.242;2023-12-14T06:58:02;15.18;;;8.93;;
62933;SDS011;49038;47.600;19.242;2023-12-14T07:01:04;20.08;;;9.98;;
62933;SDS011;49038;47.600;19.242;2023-12-14T07:04:07;22.35;;;11.20;;
62933;SDS011;49038;47.600;19.242;2023-12-14T07:07:10;15.18;;;9.18;;
62933;SDS011;49038;47.600;19.242;2023-12-14T07:10:12;23.42;;;10.57;;
62933;SDS011;49038;47.600;19.242;2023-12-14T07:13:14;15.20;;;8.98;;
62933;SDS011;49038;47.600;19.242;2023-12-14T07:16:17;13.07;;;8.40;;
62933;SDS011;49038;47.600;19.242;2023-12-14T07:19:19;14.35;;;8.77;;
62933;SDS011;49038;47.600;19.242;2023-12-14T07:22:22;13.70;;;7.85;;
62933;SDS011;49038;47.600;19.242;2023-12-14T07:25:24;9.88;;;7.90;;
62933;SDS011;49038;47.600;19.242;2023-12-14T07:28:26;12.30;;;8.05;;
62933;SDS011;49038;47.600;19.242;2023-12-14T07:31:28;16.25;;;9.35;;
62933;SDS011;49038;47.600;19.242;2023-12-14T07:34:31;27.23;;;13.00;;
62933;SDS011;49038;47.600;19.242;2023-12-14T07:37:33;25.83;;;9.95;;
62933;SDS011;49038;47.600;19.242;2023-12-14T07:40:36;18.48;;;11.77;;
62933;SDS011;49038;47.600;19.242;2023-12-14T07:43:40;18.67;;;12.65;;
62933;SDS011;49038;47.600;19.242;2023-12-14T07:46:42;22.17;;;11.63;;
62933;SDS011;49038;47.600;19.242;2023-12-14T07:49:45;28.35;;;14.93;;
62933;SDS011;49038;47.600;19.242;2023-12-14T07:52:47;37.65;;;19.55;;
62933;SDS011;49038;47.600;19.242;2023-12-14T07:55:50;32.67;;;16.67;;
62933;SDS011;49038;47.600;19.242;2023-12-14T07:58:52;24.17;;;15.75;;
62933;SDS011;49038;47.600;19.242;2023-12-14T08:01:55;25.77;;;13.20;;
62933;SDS011;49038;47.600;19.242;2023-12-14T08:04:57;22.30;;;13.43;;
62933;SDS011;49038;47.600;19.242;2023-12-14T08:07:59;26.08;;;14.98;;
62933;SDS011;49038;47.600;19.242;2023-12-14T08:11:02;36.05;;;13.98;;
62933;SDS011;49038;47.600;19.242;2023-12-14T08:14:05;32.10;;;13.75;;
62933;SDS011;49038;47.600;19.242;2023-12-14T08:17:07;20.80;;;13.25;;
62933;SDS011;49038;47.600;19.242;2023-12-14T08:20:09;26.23;;;13.18;;
62933;SDS011;49038;47.600;19.242;2023-12-14T08:23:13;18.27;;;8.23;;
62933;SDS011;49038;47.600;19.242;2023-12-14T08:26:16;11.88;;;7.30;;
62933;SDS011;49038;47.600;19.242;2023-12-14T08:29:18;7.78;;;5.82;;
62933;SDS011;49038;47.600;19.242;2023-12-14T08:32:20;10.82;;;7.57;;
62933;SDS011;49038;47.600;19.242;2023-12-14T08:35:24;11.07;;;6.53;;
62933;SDS011;49038;47.600;19.242;2023-12-14T08:38:26;11.88;;;7.53;;
62933;SDS011;49038;47.600;19.242;2023-12-14T08:41:29;13.27;;;8.95;;
62933;SDS011;49038;47.600;19.242;2023-12-14T08:44:31;14.02;;;8.00;;
62933;SDS011;49038;47.600;19.242;2023-12-14T08:47:33;12.95;;;8.40;;
62933;SDS011;49038;47.600;19.242;2023-12-14T08:50:35;13.95;;;10.00;;
62933;SDS011;49038;47.600;19.242;2023-12-14T08:53:38;19.15;;;10.50;;
62933;SDS011;49038;47.600;19.242;2023-12-14T08:56:40;15.23;;;9.32;;
62933;SDS011;49038;47.600;19.242;2023-12-14T08:59:42;14.32;;;8.55;;
62933;SDS011;49038;47.600;19.242;2023-12-14T09:02:45;13.60;;;8.10;;
62933;SDS011;49038;47.600;19.242;2023-12-14T09:05:48;12.15;;;7.75;;
62933;SDS011;49038;47.600;19.242;2023-12-14T09:08:50;14.20;;;8.32;;
62933;SDS011;49038;47.600;19.242;2023-12-14T09:11:53;12.93;;;8.70;;
62933;SDS011;49038;47.600;19.242;2023-12-14T09:14:56;11.32;;;7.62;;
62933;SDS011;49038;47.600;19.242;2023-12-14T09:17:58;12.18;;;7.87;;
62933;SDS011;49038;47.600;19.242;2023-12-14T09:21:01;14.63;;;8.80;;
62933;SDS011;49038;47.600;19.242;2023-12-14T09:24:03;12.85;;;7.20;;
62933;SDS011;49038;47.600;19.242;2023-12-14T09:27:06;11.73;;;7.18;;
62933;SDS011;49038;47.600;19.242;2023-12-14T09:30:08;10.65;;;7.15;;
62933;SDS011;49038;47.600;19.242;2023-12-14T09:33:11;12.60;;;8.25;;
62933;SDS011;49038;47.600;19.242;2023-12-14T09:36:13;18.20;;;11.43;;
62933;SDS011;49038;47.600;19.242;2023-12-14T09:39:16;12.85;;;7.82;;
62933;SDS011;49038;47.600;19.242;2023-12-14T09:42:21;10.93;;;7.50;;
62933;SDS011;49038;47.600;19.242;2023-12-14T09:45:23;11.90;;;7.00;;
62933;SDS011;49038;47.600;19.242;2023-12-14T09:48:28;12.82;;;7.57;;
62933;SDS011;49038;47.600;19.242;2023-12-14T09:51:31;10.25;;;6.15;;
62933;SDS011;49038;47.600;19.242;2023-12-14T09:54:37;12.40;;;7.05;;
62933;SDS011;49038;47.600;19.242;2023-12-14T09:57:39;11.50;;;7.10;;
62933;SDS011;49038;47.600;19.242;2023-12-14T10:00:42;11.90;;;5.90;;
62933;SDS011;49038;47.600;19.242;2023-12-14T10:03:45;7.12;;;5.47;;
62933;SDS011;49038;47.600;19.242;2023-12-14T10:06:47;9.18;;;5.15;;
62933;SDS011;49038;47.600;19.242;2023-12-14T10:09:50;7.80;;;5.53;;
62933;SDS011;49038;47.600;19.242;2023-12-14T10:12:53;8.68;;;6.18;;
62933;SDS011;49038;47.600;19.242;2023-12-14T10:15:56;8.20;;;5.22;;
62933;SDS011;49038;47.600;19.242;2023-12-14T10:18:58;10.15;;;6.03;;
62933;SDS011;49038;47.600;19.242;2023-12-14T10:22:01;11.12;;;5.93;;
62933;SDS011;49038;47.600;19.242;2023-12-14T10:25:04;7.97;;;6.28;;
62933;SDS011;49038;47.600;19.242;2023-12-14T10:28:07;9.70;;;5.82;;
62933;SDS011;49038;47.600;19.242;2023-12-14T10:31:09;6.90;;;5.28;;
62933;SDS011;49038;47.600;19.242;2023-12-14T10:34:12;6.65;;;5.37;;
62933;SDS011;49038;47.600;19.242;2023-12-14T10:37:15;6.22;;;4.37;;
62933;SDS011;49038;47.600;19.242;2023-12-14T10:40:19;5.90;;;4.55;;
62933;SDS011;49038;47.600;19.242;2023-12-14T10:43:22;7.90;;;5.37;;
62933;SDS011;49038;47.600;19.242;2023-12-14T10:46:46;12.75;;;5.25;;
62933;SDS011;49038;47.600;19.242;2023-12-14T10:49:50;7.22;;;4.57;;
62933;SDS011;49038;47.600;19.242;2023-12-14T10:52:53;10.63;;;6.60;;
62933;SDS011;49038;47.600;19.242;2023-12-14T10:55:56;18.48;;;9.45;;
62933;SDS011;49038;47.600;19.242;2023-12-14T10:59:01;7.45;;;5.37;;
62933;SDS011;49038;47.600;19.242;2023-12-14T11:02:08;24.48;;;11.20;;
62933;SDS011;49038;47.600;19.242;2023-12-14T11:05:14;16.85;;;7.62;;
62933;SDS011;49038;47.600;19.242;2023-12-14T11:08:18;11.95;;;8.25;;
62933;SDS011;49038;47.600;19.242;2023-12-14T11:11:21;14.27;;;8.35;;
62933;SDS011;49038;47.600;19.242;2023-12-14T11:14:24;9.13;;;5.90;;
62933;SDS011;49038;47.600;19.242;2023-12-14T11:17:27;6.07;;;4.53;;
62933;SDS011;49038;47.600;19.242;2023-12-14T11:20:31;5.40;;;4.22;;
62933;SDS011;49038;47.600;19.242;2023-12-14T11:23:41;10.45;;;6.20;;
62933;SDS011;49038;47.600;19.242;2023-12-14T11:26:44;9.98;;;6.68;;
62933;SDS011;49038;47.600;19.242;2023-12-14T11:29:47;8.27;;;5.53;;
62933;SDS011;49038;47.600;19.242;2023-12-14T11:32:50;17.27;;;7.75;;
62933;SDS011;49038;47.600;19.242;2023-12-14T11:35:52;8.30;;;5.70;;
62933;SDS011;49038;47.600;19.242;2023-12-14T11:38:55;8.35;;;5.95;;
62933;SDS011;49038;47.600;19.242;2023-12-14T11:45:04;12.55;;;6.53;;
62933;SDS011;49038;47.600;19.242;2023-12-14T11:48:07;9.40;;;6.62;;
62933;SDS011;49038;47.600;19.242;2023-12-14T11:51:12;13.00;;;7.18;;
62933;SDS011;49038;47.600;19.242;2023-12-14T11:54:14;8.40;;;5.72;;
62933;SDS011;49038;47.600;19.242;2023-12-14T11:57:16;8.90;;;5.87;;
62933;SDS011;49038;47.600;19.242;2023-12-14T12:00:22;8.50;;;5.72;;
62933;SDS011;49038;47.600;19.242;2023-12-14T12:03:31;10.20;;;6.12;;
62933;SDS011;49038;47.600;19.242;2023-12-14T12:06:35;14.73;;;8.25;;
62933;SDS011;49038;47.600;19.242;2023-12-14T12:09:38;9.02;;;5.93;;
62933;SDS011;49038;47.600;19.242;2023-12-14T12:12:43;10.93;;;7.80;;
62933;SDS011;49038;47.600;19.242;2023-12-14T12:15:47;13.57;;;7.87;;
62933;SDS011;49038;47.600;19.242;2023-12-14T12:18:50;13.93;;;9.35;;
62933;SDS011;49038;47.600;19.242;2023-12-14T12:21:53;17.20;;;9.38;;
62933;SDS011;49038;47.600;19.242;2023-12-14T12:24:56;17.40;;;7.93;;
62933;SDS011;49038;47.600;19.242;2023-12-14T12:28:12;14.87;;;7.45;;
62933;SDS011;49038;47.600;19.242;2023-12-14T12:31:15;17.65;;;7.28;;
62933;SDS011;49038;47.600;19.242;2023-12-14T12:34:17;12.93;;;7.20;;
62933;SDS011;49038;47.600;19.242;2023-12-14T12:37:20;13.95;;;7.15;;
62933;SDS011;49038;47.600;19.242;2023-12-14T12:40:23;11.70;;;7.78;;
62933;SDS011;49038;47.600;19.242;2023-12-14T12:43:28;12.70;;;6.53;;
62933;SDS011;49038;47.600;19.242;2023-12-14T12:46:37;8.15;;;6.00;;
62933;SDS011;49038;47.600;19.242;2023-12-14T12:49:40;8.40;;;5.78;;
62933;SDS011;49038;47.600;19.242;2023-12-14T12:52:42;8.63;;;5.45;;
62933;SDS011;49038;47.600;19.242;2023-12-14T12:55:46;6.65;;;4.20;;
62933;SDS011;49038;47.600;19.242;2023-12-14T12:58:48;13.25;;;5.37;;
62933;SDS011;49038;47.600;19.242;2023-12-14T13:01:52;7.95;;;4.93;;
62933;SDS011;49038;47.600;19.242;2023-12-14T13:04:55;7.28;;;4.60;;
62933;SDS011;49038;47.600;19.242;2023-12-14T13:07:57;6.93;;;4.10;;
62933;SDS011;49038;47.600;19.242;2023-12-14T13:11:00;7.97;;;5.15;;
62933;SDS011;49038;47.600;19.242;2023-12-14T13:14:02;6.62;;;3.97;;
62933;SDS011;49038;47.600;19.242;2023-12-14T13:17:09;5.70;;;4.32;;
62933;SDS011;49038;47.600;19.242;2023-12-14T13:20:12;5.35;;;4.65;;
62933;SDS011;49038;47.600;19.242;2023-12-14T13:23:14;7.78;;;4.53;;
62933;SDS011;49038;47.600;19.242;2023-12-14T13:26:16;5.75;;;4.28;;
62933;SDS011;49038;47.600;19.242;2023-12-14T13:29:19;9.95;;;5.32;;
62933;SDS011;49038;47.600;19.242;2023-12-14T13:32:22;11.25;;;6.30;;
62933;SDS011;49038;47.600;19.242;2023-12-14T13:35:25;11.57;;;5.50;;
62933;SDS011;49038;47.600;19.242;2023-12-14T13:38:27;11.23;;;6.53;;
62933;SDS011;49038;47.600;19.242;2023-12-14T13:41:30;13.18;;;6.75;;
62933;SDS011;49038;47.600;19.242;2023-12-14T13:44:50;9.50;;;5.70;;
62933;SDS011;49038;47.600;19.242;2023-12-14T13:47:53;8.32;;;4.78;;
62933;SDS011;49038;47.600;19.242;2023-12-14T13:50:55;8.60;;;5.32;;
62933;SDS011;49038;47.600;19.242;2023-12-14T13:53:57;9.95;;;6.53;;
62933;SDS011;49038;47.600;19.242;2023-12-14T13:57:00;11.57;;;6.43;;
62933;SDS011;49038;47.600;19.242;2023-12-14T14:00:03;12.48;;;6.07;;
62933;SDS011;49038;47.600;19.242;2023-12-14T14:03:05;11.88;;;6.97;;
62933;SDS011;49038;47.600;19.242;2023-12-14T14:06:08;11.93;;;6.32;;
62933;SDS011;49038;47.600;19.242;2023-12-14T14:09:10;10.13;;;5.87;;
62933;SDS011;49038;47.600;19.242;2023-12-14T14:12:13;9.43;;;6.32;;
62933;SDS011;49038;47.600;19.242;2023-12-14T14:15:16;15.75;;;8.60;;
62933;SDS011;49038;47.600;19.242;2023-12-14T14:18:18;20.98;;;11.77;;
62933;SDS011;49038;47.600;19.242;2023-12-14T14:21:20;17.60;;;8.35;;
62933;SDS011;49038;47.600;19.242;2023-12-14T14:24:23;10.48;;;8.05;;
62933;SDS011;49038;47.600;19.242;2023-12-14T14:27:25;8.07;;;5.82;;
62933;SDS011;49038;47.600;19.242;2023-12-14T14:30:27;14.10;;;8.05;;
62933;SDS011;49038;47.600;19.242;2023-12-14T14:33:30;12.88;;;8.10;;
62933;SDS011;49038;47.600;19.242;2023-12-14T14:36:32;12.77;;;6.37;;
62933;SDS011;49038;47.600;19.242;2023-12-14T14:39:35;5.80;;;4.03;;
62933;SDS011;49038;47.600;19.242;2023-12-14T14:42:41;8.10;;;5.12;;
62933;SDS011;49038;47.600;19.242;2023-12-14T14:45:43;8.48;;;5.03;;
62933;SDS011;49038;47.600;19.242;2023-12-14T14:48:46;9.77;;;6.72;;
62933;SDS011;49038;47.600;19.242;2023-12-14T14:51:49;19.42;;;10.77;;
62933;SDS011;49038;47.600;19.242;2023-12-14T14:54:51;14.10;;;8.40;;
62933;SDS011;49038;47.600;19.242;2023-12-14T14:57:55;11.07;;;6.97;;
62933;SDS011;49038;47.600;19.242;2023-12-14T15:00:57;18.73;;;10.02;;
62933;SDS011;49038;47.600;19.242;2023-12-14T15:04:00;27.25;;;16.08;;
62933;SDS011;49038;47.600;19.242;2023-12-14T15:07:02;23.85;;;12.82;;
62933;SDS011;49038;47.600;19.242;2023-12-14T15:10:05;22.77;;;13.27;;
62933;SDS011;49038;47.600;19.242;2023-12-14T15:13:08;24.80;;;14.70;;
62933;SDS011;49038;47.600;19.242;2023-12-14T15:16:10;109.10;;;45.55;;
62933;SDS011;49038;47.600;19.242;2023-12-14T15:19:13;100.05;;;45.00;;
62933;SDS011;49038;47.600;19.242;2023-12-14T15:22:16;95.50;;;48.80;;
62933;SDS011;49038;47.600;19.242;2023-12-14T15:25:18;54.47;;;27.65;;
62933;SDS011;49038;47.600;19.242;2023-12-14T15:28:21;79.20;;;37.05;;
62933;SDS011;49038;47.600;19.242;2023-12-14T15:31:23;81.50;;;35.03;;
62933;SDS011;49038;47.600;19.242;2023-12-14T15:34:25;89.18;;;40.85;;
62933;SDS011;49038;47.600;19.242;2023-12-14T15:37:28;80.43;;;37.65;;
62933;SDS011;49038;47.600;19.242;2023-12-14T15:40:31;69.57;;;32.03;;
62933;SDS011;49038;47.600;19.242;2023-12-14T15:43:33;85.53;;;38.92;;
62933;SDS011;49038;47.600;19.242;2023-12-14T15:46:36;33.08;;;17.17;;
62933;SDS011;49038;47.600;19.242;2023-12-14T15:49:38;30.10;;;15.60;;
62933;SDS011;49038;47.600;19.242;2023-12-14T15:52:41;47.10;;;24.45;;
62933;SDS011;49038;47.600;19.242;2023-12-14T15:55:43;48.87;;;22.33;;
62933;SDS011;49038;47.600;19.242;2023-12-14T15:58:45;31.70;;;20.77;;
62933;SDS011;49038;47.600;19.242;2023-12-14T16:01:47;25.35;;;15.32;;
62933;SDS011;49038;47.600;19.242;2023-12-14T16:04:51;93.07;;;48.17;;
62933;SDS011;49038;47.600;19.242;2023-12-14T16:07:53;38.17;;;21.10;;
62933;SDS011;49038;47.600;19.242;2023-12-14T16:10:56;79.07;;;39.58;;
62933;SDS011;49038;47.600;19.242;2023-12-14T16:13:58;43.47;;;23.27;;
62933;SDS011;49038;47.600;19.242;2023-12-14T16:17:01;20.35;;;12.73;;
62933;SDS011;49038;47.600;19.242;2023-12-14T16:20:05;23.40;;;12.35;;
62933;SDS011;49038;47.600;19.242;2023-12-14T16:23:08;19.77;;;9.73;;
62933;SDS011;49038;47.600;19.242;2023-12-14T16:26:11;120.65;;;45.35;;
62933;SDS011;49038;47.600;19.242;2023-12-14T16:29:13;407.00;;;165.65;;
62933;SDS011;49038;47.600;19.242;2023-12-14T16:32:16;264.15;;;103.07;;
62933;SDS011;49038;47.600;19.242;2023-12-14T16:35:18;97.57;;;51.55;;
62933;SDS011;49038;47.600;19.242;2023-12-14T16:38:21;59.55;;;29.25;;
62933;SDS011;49038;47.600;19.242;2023-12-14T16:41:24;47.67;;;23.17;;
62933;SDS011;49038;47.600;19.242;2023-12-14T16:44:26;92.75;;;35.85;;
62933;SDS011;49038;47.600;19.242;2023-12-14T16:47:29;132.90;;;54.47;;
62933;SDS011;49038;47.600;19.242;2023-12-14T16:50:31;83.37;;;31.85;;
62933;SDS011;49038;47.600;19.242;2023-12-14T16:53:33;57.42;;;26.55;;
62933;SDS011;49038;47.600;19.242;2023-12-14T16:56:36;42.67;;;19.85;;
62933;SDS011;49038;47.600;19.242;2023-12-14T16:59:45;38.72;;;17.67;;
62933;SDS011;49038;47.600;19.242;2023-12-14T17:02:47;19.87;;;11.77;;
62933;SDS011;49038;47.600;19.242;2023-12-14T17:05:50;33.22;;;17.42;;
62933;SDS011;49038;47.600;19.242;2023-12-14T17:08:52;36.63;;;20.25;;
62933;SDS011;49038;47.600;19.242;2023-12-14T17:11:55;56.20;;;26.55;;
62933;SDS011;49038;47.600;19.242;2023-12-14T17:14:58;49.00;;;25.90;;
62933;SDS011;49038;47.600;19.242;2023-12-14T17:18:00;47.10;;;27.27;;
62933;SDS011;49038;47.600;19.242;2023-12-14T17:21:02;60.58;;;29.27;;
62933;SDS011;49038;47.600;19.242;2023-12-14T17:24:06;42.05;;;24.92;;
62933;SDS011;49038;47.600;19.242;2023-12-14T17:27:11;45.40;;;24.42;;
62933;SDS011;49038;47.600;19.242;2023-12-14T17:30:14;35.72;;;23.55;;
62933;SDS011;49038;47.600;19.242;2023-12-14T17:33:16;38.17;;;22.85;;
62933;SDS011;49038;47.600;19.242;2023-12-14T17:36:19;30.05;;;16.37;;
62933;SDS011;49038;47.600;19.242;2023-12-14T17:39:22;43.45;;;22.70;;
62933;SDS011;49038;47.600;19.242;2023-12-14T17:42:25;28.80;;;15.10;;
62933;SDS011;49038;47.600;19.242;2023-12-14T17:45:27;23.70;;;13.40;;
62933;SDS011;49038;47.600;19.242;2023-12-14T17:48:30;48.35;;;25.10;;
62933;SDS011;49038;47.600;19.242;2023-12-14T17:51:33;60.72;;;29.17;;
62933;SDS011;49038;47.600;19.242;2023-12-14T17:54:41;41.13;;;23.87;;